createdAt,value
2023-01-28T00:00:54.656Z,80.70
2023-01-28T00:03:21.655Z,80.80
2023-01-28T00:05:48.702Z,80.70
2023-01-28T00:08:15.678Z,80.60
2023-01-28T00:10:45.562Z,80.70
2023-01-28T00:13:16.447Z,80.80
2023-01-28T00:15:43.191Z,80.60
2023-01-28T00:18:10.203Z,76.60
2023-01-28T00:20:37.138Z,80.60
2023-01-28T00:23:04.087Z,80.40
2023-01-28T00:25:31.447Z,80.50
2023-01-28T00:27:58.371Z,80.40
2023-01-28T00:30:25.354Z,80.50
2023-01-28T00:32:54.824Z,80.70
2023-01-28T00:35:21.696Z,80.60
2023-01-28T00:37:48.727Z,80.70
2023-01-28T00:40:15.853Z,80.60
2023-01-28T00:42:42.666Z,80.60
2023-01-28T00:45:10.101Z,80.50
2023-01-28T00:47:36.971Z,80.40
2023-01-28T00:50:05.291Z,80.60
2023-01-28T00:52:52.454Z,80.40
2023-01-28T00:55:20.004Z,80.50
2023-01-28T00:57:46.912Z,80.40
2023-01-28T01:00:14.296Z,80.40
2023-01-28T01:02:42.239Z,80.30
2023-01-28T01:05:09.536Z,80.40
2023-01-28T01:07:41.689Z,80.30
2023-01-28T01:10:13.834Z,80.30
2023-01-28T01:12:41.296Z,79.90
2023-01-28T01:15:10.970Z,80.20
2023-01-28T01:17:43.837Z,80.30
2023-01-28T01:20:16.908Z,79.80
2023-01-28T01:22:43.750Z,80.00
2023-01-28T01:25:13.260Z,80.40
2023-01-28T01:27:40.566Z,80.60
2023-01-28T01:30:09.308Z,80.60
2023-01-28T01:32:36.563Z,80.70
2023-01-28T01:35:07.276Z,80.90
2023-01-28T01:37:37.724Z,80.70
2023-01-28T01:40:05.500Z,76.70
2023-01-28T01:42:33.870Z,80.30
2023-01-28T01:45:07.997Z,80.40
2023-01-28T01:48:13.126Z,80.50
2023-01-28T01:51:05.665Z,77.50
2023-01-28T01:53:33.054Z,80.40
2023-01-28T01:56:06.513Z,80.70
2023-01-28T01:58:39.083Z,80.40
2023-01-28T02:01:07.278Z,80.10
2023-01-28T02:04:08.022Z,80.30
2023-01-28T02:06:37.542Z,77.50
2023-01-28T02:09:27.574Z,80.40
2023-01-28T02:12:07.110Z,80.40
2023-01-28T02:14:42.161Z,80.50
2023-01-28T02:17:09.784Z,80.50
2023-01-28T02:20:00.504Z,80.80
2023-01-28T02:23:12.830Z,78.00
2023-01-28T02:26:23.227Z,78.10
2023-01-28T02:29:15.453Z,79.60
2023-01-28T02:32:05.271Z,78.90
2023-01-28T02:35:20.513Z,79.20
2023-01-28T02:38:00.859Z,78.90
2023-01-28T02:41:00.986Z,79.60
2023-01-28T02:43:47.217Z,79.80
2023-01-28T02:46:44.944Z,78.30
2023-01-28T02:49:30.558Z,79.10
2023-01-28T02:52:46.875Z,79.40
2023-01-28T02:55:39.507Z,79.80
2023-01-28T02:58:26.052Z,80.00
2023-01-28T03:01:23.036Z,80.00
2023-01-28T03:04:08.097Z,80.30
2023-01-28T03:06:44.291Z,78.60
2023-01-28T03:09:22.822Z,80.00
2023-01-28T03:12:33.060Z,80.40
2023-01-28T03:15:44.976Z,78.90
2023-01-28T03:18:57.346Z,77.80
2023-01-28T03:21:57.212Z,79.30
2023-01-28T03:24:54.114Z,79.80
2023-01-28T03:28:08.715Z,80.50
2023-01-28T03:31:09.850Z,79.30
2023-01-28T03:33:56.539Z,80.20
2023-01-28T03:36:42.951Z,80.70
2023-01-28T03:39:09.797Z,80.60
2023-01-28T03:41:36.861Z,80.70
2023-01-28T03:44:22.343Z,80.70
2023-01-28T03:46:49.221Z,80.80
2023-01-28T03:49:17.457Z,80.80
2023-01-28T03:51:46.199Z,80.80
2023-01-28T03:54:13.581Z,81.20
2023-01-28T03:56:40.500Z,80.70
2023-01-28T03:59:07.965Z,80.80
2023-01-28T04:01:35.068Z,80.70
2023-01-28T04:04:02.128Z,80.70
2023-01-28T04:06:29.059Z,80.60
2023-01-28T04:08:59.255Z,80.60
2023-01-28T04:11:26.960Z,80.40
2023-01-28T04:13:53.850Z,80.40
2023-01-28T04:16:21.062Z,80.90
2023-01-28T04:18:48.295Z,80.50
2023-01-28T04:21:15.177Z,80.50
2023-01-28T04:23:42.073Z,80.50
2023-01-28T04:26:08.865Z,80.50
2023-01-28T04:28:35.755Z,80.50
2023-01-28T04:31:02.803Z,80.50
2023-01-28T04:33:29.787Z,80.40
2023-01-28T04:35:56.777Z,80.50
2023-01-28T04:38:23.848Z,80.60
2023-01-28T04:40:54.650Z,80.60
2023-01-28T04:43:21.524Z,80.30
2023-01-28T04:45:49.283Z,76.20
2023-01-28T04:48:17.359Z,80.60
2023-01-28T04:50:45.668Z,80.60
2023-01-28T04:53:12.866Z,80.60
2023-01-28T04:55:40.028Z,80.50
2023-01-28T04:58:07.572Z,80.60
2023-01-28T05:00:34.508Z,80.60
2023-01-28T05:03:01.485Z,80.50
2023-01-28T05:05:28.434Z,80.50
2023-01-28T05:07:57.836Z,80.50
2023-01-28T05:10:26.536Z,80.50
2023-01-28T05:12:53.376Z,80.50
2023-01-28T05:15:21.111Z,80.50
2023-01-28T05:17:48.129Z,80.20
2023-01-28T05:20:15.432Z,80.20
2023-01-28T05:22:43.065Z,80.00
2023-01-28T05:25:10.419Z,80.00
2023-01-28T05:27:37.313Z,80.00
2023-01-28T05:30:06.684Z,80.00
2023-01-28T05:32:34.308Z,79.90
2023-01-28T05:35:01.624Z,79.80
2023-01-28T05:37:28.485Z,79.90
2023-01-28T05:39:55.434Z,80.10
2023-01-28T05:42:22.582Z,80.10
2023-01-28T05:44:49.538Z,80.20
2023-01-28T05:47:16.488Z,80.30
2023-01-28T05:49:43.406Z,80.40
2023-01-28T05:52:10.229Z,80.50
2023-01-28T05:54:37.053Z,80.40
2023-01-28T05:57:04.424Z,80.30
2023-01-28T05:59:31.689Z,80.20
2023-01-28T06:01:58.511Z,80.20
2023-01-28T06:04:25.381Z,80.20
2023-01-28T06:06:52.206Z,80.30
2023-01-28T06:09:19.097Z,80.30
2023-01-28T06:11:46.620Z,80.20
2023-01-28T06:14:13.499Z,80.30
2023-01-28T06:16:40.357Z,80.20
2023-01-28T06:19:07.222Z,80.20
2023-01-28T06:21:34.029Z,80.30
2023-01-28T06:24:01.018Z,80.30
2023-01-28T06:26:27.983Z,80.60
2023-01-28T06:28:54.824Z,80.70
2023-01-28T06:31:21.625Z,80.70
2023-01-28T06:33:48.495Z,80.70
2023-01-28T06:36:15.316Z,80.70
2023-01-28T06:38:42.279Z,80.80
2023-01-28T06:41:09.370Z,80.80
2023-01-28T06:43:36.272Z,80.70
2023-01-28T06:46:03.328Z,80.60
2023-01-28T06:48:30.396Z,80.70
2023-01-28T06:50:57.275Z,80.70
2023-01-28T06:53:24.187Z,80.60
2023-01-28T06:55:51.052Z,80.50
2023-01-28T06:58:18.069Z,80.50
2023-01-28T07:00:44.940Z,80.40
2023-01-28T07:03:11.944Z,80.40
2023-01-28T07:05:39.091Z,80.50
2023-01-28T07:08:06.489Z,80.60
2023-01-28T07:10:33.378Z,80.70
2023-01-28T07:13:00.277Z,80.50
2023-01-28T07:15:27.219Z,80.60
2023-01-28T07:17:54.169Z,80.30
2023-01-28T07:20:21.283Z,80.30
2023-01-28T07:22:48.122Z,80.50
2023-01-28T07:25:16.105Z,80.70
2023-01-28T07:27:52.340Z,80.80
2023-01-28T07:30:21.046Z,80.30
2023-01-28T07:32:53.318Z,80.70
2023-01-28T07:35:20.296Z,80.60
2023-01-28T07:37:54.064Z,80.20
2023-01-28T07:40:22.009Z,79.30
2023-01-28T07:42:49.099Z,80.20
2023-01-28T07:45:16.469Z,80.10
2023-01-28T07:47:43.352Z,80.20
2023-01-28T07:50:11.497Z,80.30
2023-01-28T07:52:44.379Z,80.60
2023-01-28T07:55:15.509Z,80.70
2023-01-28T07:58:11.345Z,80.50
2023-01-28T08:00:38.955Z,77.30
2023-01-28T08:03:16.817Z,80.80
2023-01-28T08:05:51.349Z,79.10
2023-01-28T08:08:18.963Z,80.40
2023-01-28T08:10:46.598Z,80.80
2023-01-28T08:13:15.371Z,80.80
2023-01-28T08:15:42.887Z,80.90
2023-01-28T08:18:13.285Z,80.90
2023-01-28T08:20:41.571Z,80.70
2023-01-28T08:23:17.619Z,80.70
2023-01-28T08:25:45.052Z,79.90
2023-01-28T08:28:13.007Z,81.00
2023-01-28T08:30:40.886Z,81.00
2023-01-28T08:33:10.748Z,80.80
2023-01-28T08:35:38.620Z,80.70
2023-01-28T08:38:07.373Z,80.80
2023-01-28T08:40:35.208Z,80.80
2023-01-28T08:43:05.101Z,81.00
2023-01-28T08:45:32.441Z,80.60
2023-01-28T08:48:05.424Z,80.70
2023-01-28T08:50:36.908Z,80.60
2023-01-28T08:53:12.435Z,80.50
2023-01-28T08:55:39.369Z,80.30
2023-01-28T08:58:10.547Z,80.50
2023-01-28T09:00:38.458Z,80.60
2023-01-28T09:03:06.599Z,80.70
2023-01-28T09:05:35.842Z,80.70
2023-01-28T09:08:06.011Z,80.60
2023-01-28T09:10:33.645Z,80.70
2023-01-28T09:13:12.880Z,80.80
2023-01-28T09:15:40.481Z,80.30
2023-01-28T09:18:07.622Z,80.90
2023-01-28T09:20:34.816Z,80.90
2023-01-28T09:23:03.064Z,80.80
2023-01-28T09:25:30.633Z,80.80
2023-01-28T09:27:58.135Z,80.60
2023-01-28T09:30:25.579Z,80.60
2023-01-28T09:32:54.635Z,80.80
2023-01-28T09:35:22.101Z,80.70
2023-01-28T09:37:49.156Z,80.30
2023-01-28T09:40:34.408Z,80.10
2023-01-28T09:43:27.483Z,80.10
2023-01-28T09:46:00.189Z,80.60
2023-01-28T09:48:38.163Z,80.00
2023-01-28T09:51:26.384Z,80.00
2023-01-28T09:53:56.736Z,80.80
2023-01-28T09:56:32.268Z,81.90
2023-01-28T09:59:20.632Z,81.60
2023-01-28T10:02:42.759Z,81.80
2023-01-28T10:05:18.495Z,78.50
2023-01-28T10:08:38.054Z,82.10
2023-01-28T10:11:55.936Z,78.90
2023-01-28T10:14:40.350Z,77.20
2023-01-28T10:17:28.798Z,80.00
2023-01-28T10:20:14.313Z,79.80
2023-01-28T10:23:15.862Z,80.40
2023-01-28T10:25:48.207Z,80.20
2023-01-28T10:28:29.775Z,82.40
2023-01-28T10:30:56.787Z,81.40
2023-01-28T10:33:39.930Z,82.30
2023-01-28T10:36:09.510Z,81.60
2023-01-28T10:38:56.444Z,82.00
2023-01-28T10:41:23.529Z,76.80
2023-01-28T10:43:50.897Z,81.50
2023-01-28T10:46:32.692Z,81.30
2023-01-28T10:49:25.184Z,79.80
2023-01-28T10:51:51.989Z,77.10
2023-01-28T10:54:28.213Z,82.70
2023-01-28T10:57:13.043Z,79.70
2023-01-28T10:59:41.797Z,77.40
2023-01-28T11:02:49.407Z,80.30
2023-01-28T11:05:29.524Z,73.40
2023-01-28T11:08:17.297Z,78.30
2023-01-28T11:10:46.347Z,74.50
2023-01-28T11:13:20.436Z,80.00
2023-01-28T11:16:12.354Z,77.40
2023-01-28T11:18:48.575Z,78.40
2023-01-28T11:21:29.534Z,78.70
2023-01-28T11:24:03.852Z,76.00
2023-01-28T11:26:54.426Z,79.60
2023-01-28T11:29:34.680Z,74.60
2023-01-28T11:32:01.747Z,79.40
2023-01-28T11:34:34.841Z,80.00
2023-01-28T11:37:12.938Z,79.40
2023-01-28T11:39:39.813Z,79.30
2023-01-28T11:42:20.548Z,80.20
2023-01-28T11:44:49.149Z,75.90
2023-01-28T11:47:46.708Z,79.50
2023-01-28T11:50:36.099Z,79.10
2023-01-28T11:53:40.288Z,77.70
2023-01-28T11:56:37.343Z,78.30
2023-01-28T11:59:44.745Z,76.90
2023-01-28T12:02:35.634Z,75.40
2023-01-28T12:05:40.106Z,74.90
2023-01-28T12:08:24.990Z,73.50
2023-01-28T12:11:45.199Z,78.40
2023-01-28T12:14:45.027Z,74.80
2023-01-28T12:17:46.851Z,75.40
2023-01-28T12:20:31.344Z,80.30
2023-01-28T12:23:10.244Z,79.40
2023-01-28T12:26:13.934Z,78.50
2023-01-28T12:28:58.363Z,77.10
2023-01-28T12:31:34.207Z,81.20
2023-01-28T12:34:31.721Z,80.30
2023-01-28T12:37:04.716Z,75.80
2023-01-28T12:39:31.453Z,79.70
2023-01-28T12:42:17.287Z,82.00
2023-01-28T12:45:00.554Z,79.10
2023-01-28T12:47:36.163Z,79.30
2023-01-28T12:50:33.542Z,80.50
2023-01-28T12:53:13.702Z,74.80
2023-01-28T12:55:47.929Z,80.20
2023-01-28T12:58:40.893Z,80.40
2023-01-28T13:01:18.570Z,79.20
2023-01-28T13:04:06.702Z,80.30
2023-01-28T13:06:50.959Z,78.90
2023-01-28T13:09:26.075Z,79.00
2023-01-28T13:11:59.521Z,79.80
2023-01-28T13:14:33.419Z,80.30
2023-01-28T13:17:26.728Z,79.00
2023-01-28T13:19:53.969Z,76.00
2023-01-28T13:22:35.255Z,79.30
2023-01-28T13:25:30.003Z,75.30
2023-01-28T13:28:06.968Z,74.00
2023-01-28T13:30:47.481Z,76.30
2023-01-28T13:33:33.359Z,78.30
2023-01-28T13:36:24.471Z,74.00
2023-01-28T13:39:27.998Z,77.50
2023-01-28T13:42:10.180Z,75.60
2023-01-28T13:44:39.040Z,78.60
2023-01-28T13:47:05.775Z,78.80
2023-01-28T13:49:49.664Z,79.20
2023-01-28T13:52:25.396Z,76.00
2023-01-28T13:55:29.384Z,78.80
2023-01-28T13:58:06.372Z,78.00
2023-01-28T14:01:25.204Z,78.80
2023-01-28T14:04:23.066Z,75.20
2023-01-28T14:07:11.736Z,77.00
2023-01-28T14:10:18.768Z,75.30
2023-01-28T14:13:12.887Z,75.40
2023-01-28T14:16:17.621Z,75.90
2023-01-28T14:18:48.695Z,75.80
2023-01-28T14:21:23.103Z,79.80
2023-01-28T14:24:00.043Z,78.10
2023-01-28T14:26:55.962Z,78.20
2023-01-28T14:29:37.919Z,77.80
2023-01-28T14:32:28.761Z,80.80
2023-01-28T14:35:02.105Z,80.70
2023-01-28T14:37:32.018Z,80.70
2023-01-28T14:40:07.839Z,80.90
2023-01-28T14:42:46.252Z,80.20
2023-01-28T14:45:43.919Z,79.40
2023-01-28T14:48:38.427Z,81.20
2023-01-28T14:51:43.267Z,80.70
2023-01-28T14:54:19.048Z,77.50
2023-01-28T14:56:59.937Z,81.30
2023-01-28T14:59:31.574Z,78.20
2023-01-28T15:01:59.870Z,75.70
2023-01-28T15:04:33.952Z,80.70
2023-01-28T15:07:19.985Z,79.80
2023-01-28T15:09:59.672Z,77.30
2023-01-28T15:12:26.864Z,80.60
2023-01-28T15:14:53.830Z,80.70
2023-01-28T15:17:28.005Z,80.80
2023-01-28T15:19:57.713Z,79.90
2023-01-28T15:22:28.582Z,80.80
2023-01-28T15:24:56.295Z,80.80
2023-01-28T15:27:32.433Z,75.40
2023-01-28T15:30:00.169Z,79.30
2023-01-28T15:32:31.001Z,81.20
2023-01-28T15:35:00.772Z,81.00
2023-01-28T15:37:27.752Z,75.40
2023-01-28T15:40:06.525Z,81.20
2023-01-28T15:42:34.827Z,79.80
2023-01-28T15:45:01.874Z,81.20
2023-01-28T15:47:35.099Z,81.20
2023-01-28T15:50:07.072Z,80.30
2023-01-28T15:52:40.749Z,81.00
2023-01-28T15:55:33.795Z,80.30
2023-01-28T15:58:29.923Z,81.20
2023-01-28T16:01:23.730Z,79.30
2023-01-28T16:04:21.757Z,76.70
2023-01-28T16:06:49.443Z,78.40
2023-01-28T16:09:28.252Z,81.20
2023-01-28T16:12:04.442Z,79.40
2023-01-28T16:14:45.883Z,79.60
2023-01-28T16:17:19.815Z,80.80
2023-01-28T16:19:57.779Z,80.30
2023-01-28T16:22:40.315Z,80.30
2023-01-28T16:25:28.506Z,79.00
2023-01-28T16:28:00.240Z,78.10
2023-01-28T16:30:28.835Z,81.40
2023-01-28T16:32:56.739Z,81.40
2023-01-28T16:35:42.606Z,81.40
2023-01-28T16:38:17.219Z,81.30
2023-01-28T16:40:46.861Z,81.10
2023-01-28T16:43:16.578Z,81.10
2023-01-28T16:45:44.471Z,81.10
2023-01-28T16:48:12.151Z,81.30
2023-01-28T16:50:41.871Z,81.50
2023-01-28T16:53:33.945Z,81.50
2023-01-28T16:56:01.377Z,77.90
2023-01-28T16:58:28.863Z,81.60
2023-01-28T17:00:56.282Z,81.70
2023-01-28T17:03:23.878Z,81.70
2023-01-28T17:05:50.892Z,81.70
2023-01-28T17:08:17.923Z,81.70
2023-01-28T17:10:44.835Z,81.90
2023-01-28T17:13:12.359Z,81.90
2023-01-28T17:15:39.492Z,81.80
2023-01-28T17:18:06.761Z,81.80
2023-01-28T17:20:37.625Z,81.80
2023-01-28T17:23:07.064Z,81.80
2023-01-28T17:25:41.386Z,81.80
2023-01-28T17:28:10.143Z,81.40
2023-01-28T17:30:41.569Z,81.90
2023-01-28T17:33:09.332Z,81.50
2023-01-28T17:35:36.484Z,81.80
2023-01-28T17:38:05.416Z,81.80
2023-01-28T17:40:33.490Z,81.70
2023-01-28T17:43:00.399Z,81.70
2023-01-28T17:45:31.367Z,81.80
2023-01-28T17:48:18.714Z,81.60
2023-01-28T17:50:45.620Z,82.00
2023-01-28T17:53:12.726Z,82.00
2023-01-28T17:55:39.737Z,81.90
2023-01-28T17:58:06.880Z,82.00
2023-01-28T18:00:33.845Z,82.00
2023-01-28T18:03:00.796Z,82.00
2023-01-28T18:05:27.707Z,82.00
2023-01-28T18:07:54.795Z,82.00
2023-01-28T18:10:21.750Z,81.90
2023-01-28T18:12:48.614Z,81.90
2023-01-28T18:15:16.261Z,82.10
2023-01-28T18:17:43.403Z,82.10
2023-01-28T18:20:11.148Z,82.00
2023-01-28T18:22:38.064Z,82.00
2023-01-28T18:25:05.589Z,81.90
2023-01-28T18:27:32.477Z,82.00
2023-01-28T18:29:59.354Z,82.10
2023-01-28T18:32:26.618Z,82.10
2023-01-28T18:34:53.492Z,82.30
2023-01-28T18:37:20.360Z,82.30
2023-01-28T18:39:47.174Z,82.20
2023-01-28T18:42:14.491Z,82.10
2023-01-28T18:44:41.453Z,82.10
2023-01-28T18:47:08.383Z,82.10
2023-01-28T18:49:35.204Z,82.10
2023-01-28T18:52:02.745Z,82.00
2023-01-28T18:54:29.693Z,82.10
2023-01-28T18:56:56.609Z,82.10
2023-01-28T18:59:23.565Z,82.00
2023-01-28T19:01:51.330Z,82.20
2023-01-28T19:04:19.134Z,82.10
2023-01-28T19:06:47.428Z,82.20
2023-01-28T19:12:29.803Z,81.80
2023-01-28T19:14:57.349Z,82.00
2023-01-28T19:17:24.429Z,82.00
2023-01-28T19:19:51.364Z,82.00
2023-01-28T19:22:18.537Z,81.90
2023-01-28T19:24:45.540Z,81.90
2023-01-28T19:27:12.419Z,82.00
2023-01-28T19:29:39.279Z,82.10
2023-01-28T19:32:06.230Z,81.90
2023-01-28T19:34:33.126Z,81.70
2023-01-28T19:37:00.090Z,81.50
2023-01-28T19:39:26.957Z,81.70
2023-01-28T19:41:55.699Z,81.80
2023-01-28T19:44:22.866Z,81.90
2023-01-28T19:46:49.713Z,82.00
2023-01-28T19:49:16.498Z,82.10
2023-01-28T19:51:44.550Z,82.20
2023-01-28T19:54:12.221Z,82.10
2023-01-28T19:56:39.220Z,82.10
2023-01-28T19:59:06.536Z,82.00
2023-01-28T20:01:36.042Z,82.00
2023-01-28T20:04:04.780Z,81.90
2023-01-28T20:06:33.116Z,81.90
2023-01-28T20:09:05.921Z,82.00
2023-01-28T20:11:32.864Z,82.00
2023-01-28T20:14:00.134Z,82.30
2023-01-28T20:16:33.709Z,82.10
2023-01-28T20:19:07.545Z,81.40
2023-01-28T20:21:35.650Z,82.00
2023-01-28T20:24:03.737Z,82.00
2023-01-28T20:26:38.083Z,81.90
2023-01-28T20:29:12.054Z,81.80
2023-01-28T20:31:40.848Z,81.80
2023-01-28T20:34:12.645Z,82.00
2023-01-28T20:36:39.522Z,82.00
2023-01-28T20:39:06.384Z,81.80
2023-01-28T20:41:33.427Z,81.80
2023-01-28T20:44:00.535Z,81.70
2023-01-28T20:46:31.872Z,81.90
2023-01-28T20:49:03.039Z,81.80
2023-01-28T20:51:34.533Z,82.00
2023-01-28T20:54:02.895Z,82.10
2023-01-28T20:56:31.215Z,82.20
2023-01-28T20:59:02.716Z,82.00
2023-01-28T21:01:34.502Z,81.80
2023-01-28T21:04:02.278Z,81.90
2023-01-28T21:06:29.647Z,81.90
2023-01-28T21:08:57.260Z,82.20
2023-01-28T21:11:26.380Z,82.40
2023-01-28T21:13:54.091Z,82.30
2023-01-28T21:16:21.423Z,82.20
2023-01-28T21:18:48.729Z,82.10
2023-01-28T21:21:28.841Z,82.20
2023-01-28T21:23:58.690Z,80.40
2023-01-28T21:26:26.765Z,82.10
2023-01-28T21:28:55.595Z,82.00
2023-01-28T21:31:25.596Z,82.10
2023-01-28T21:33:56.479Z,81.90
2023-01-28T21:36:25.086Z,81.90
2023-01-28T21:39:00.433Z,82.10
2023-01-28T21:41:27.962Z,81.60
2023-01-28T21:43:57.570Z,82.20
2023-01-28T21:46:34.936Z,82.30
2023-01-28T21:49:05.519Z,82.30
2023-01-28T21:51:35.493Z,82.10
2023-01-28T21:54:11.607Z,82.10
2023-01-28T21:56:38.861Z,81.90
2023-01-28T21:59:24.167Z,82.50
2023-01-28T22:01:51.112Z,82.50
2023-01-28T22:04:18.062Z,82.40
2023-01-28T22:06:45.328Z,82.50
2023-01-28T22:09:13.848Z,82.50
2023-01-28T22:11:42.699Z,82.50
2023-01-28T22:14:10.329Z,82.40
2023-01-28T22:16:37.434Z,82.50
2023-01-28T22:19:04.802Z,82.50
2023-01-28T22:21:31.791Z,82.50
2023-01-28T22:23:58.800Z,82.50
2023-01-28T22:26:25.812Z,82.50
2023-01-28T22:28:52.627Z,82.50
2023-01-28T22:31:19.605Z,82.30
2023-01-28T22:33:46.587Z,82.30
2023-01-28T22:36:16.066Z,82.30
2023-01-28T22:38:45.183Z,82.30
2023-01-28T22:41:19.014Z,82.40
2023-01-28T22:43:47.150Z,82.30
2023-01-28T22:46:16.067Z,82.40
2023-01-28T22:48:43.475Z,82.40
2023-01-28T22:51:23.678Z,82.30
2023-01-28T22:53:52.241Z,80.40
2023-01-28T22:56:23.183Z,82.00
2023-01-28T22:59:00.005Z,81.70
2023-01-28T23:01:28.060Z,81.20
2023-01-28T23:03:56.204Z,81.70
2023-01-28T23:06:25.285Z,81.90
2023-01-28T23:08:52.508Z,82.10
2023-01-28T23:11:25.592Z,82.30
2023-01-28T23:14:17.195Z,82.60
2023-01-28T23:17:03.360Z,82.60
2023-01-28T23:19:49.234Z,82.50
2023-01-28T23:22:50.348Z,82.50
2023-01-28T23:25:18.851Z,81.30
2023-01-28T23:27:46.098Z,82.60
2023-01-28T23:30:14.508Z,82.50
2023-01-28T23:32:49.667Z,82.50
2023-01-28T23:35:18.919Z,81.50
2023-01-28T23:37:47.115Z,82.50
2023-01-28T23:56:35.825Z,82.20
2023-01-28T23:59:02.878Z,82.30
